createdAt,value
2023-02-02T00:01:57.686Z,4.70
2023-02-02T00:04:30.171Z,4.70
2023-02-02T00:06:59.913Z,4.80
2023-02-02T00:09:31.538Z,4.90
2023-02-02T00:12:04.014Z,4.80
2023-02-02T00:14:34.369Z,4.70
2023-02-02T00:17:05.184Z,4.80
2023-02-02T00:19:34.091Z,4.60
2023-02-02T00:22:04.550Z,4.70
2023-02-02T00:24:35.826Z,4.60
2023-02-02T00:27:04.653Z,4.50
2023-02-02T00:29:35.055Z,4.40
2023-02-02T00:32:17.888Z,4.40
2023-02-02T00:34:48.032Z,4.40
2023-02-02T00:37:17.087Z,4.60
2023-02-02T00:39:45.888Z,4.50
2023-02-02T00:42:20.966Z,4.50
2023-02-02T00:45:11.737Z,4.50
2023-02-02T00:48:05.451Z,4.60
2023-02-02T00:51:32.319Z,4.50
2023-02-02T00:55:08.597Z,4.70
2023-02-02T00:57:45.140Z,4.60
2023-02-02T01:00:30.405Z,4.60
2023-02-02T01:03:04.627Z,4.70
2023-02-02T01:05:38.507Z,4.70
2023-02-02T01:08:10.463Z,4.80
2023-02-02T01:10:39.264Z,4.70
2023-02-02T01:13:17.173Z,4.60
2023-02-02T01:15:56.812Z,4.70
2023-02-02T01:18:25.995Z,4.60
2023-02-02T01:21:01.724Z,4.60
2023-02-02T01:23:33.734Z,4.50
2023-02-02T01:26:07.576Z,4.40
2023-02-02T01:28:39.390Z,4.40
2023-02-02T01:31:13.578Z,4.50
2023-02-02T01:34:06.615Z,4.50
2023-02-02T01:36:44.888Z,4.50
2023-02-02T01:39:13.523Z,4.60
2023-02-02T01:41:44.178Z,4.70
2023-02-02T01:45:14.223Z,4.80
2023-02-02T01:47:54.067Z,4.60
2023-02-02T01:50:38.938Z,4.60
2023-02-02T01:53:10.133Z,4.60
2023-02-02T01:55:50.614Z,4.60
2023-02-02T01:58:29.054Z,4.40
2023-02-02T02:01:08.097Z,4.60
2023-02-02T02:03:40.646Z,4.70
2023-02-02T02:06:13.500Z,4.60
2023-02-02T02:08:54.690Z,4.40
2023-02-02T02:11:25.635Z,4.40
2023-02-02T02:14:41.308Z,4.40
2023-02-02T02:17:37.091Z,4.50
2023-02-02T02:21:29.485Z,4.60
2023-02-02T02:25:02.686Z,4.50
2023-02-02T02:28:24.293Z,4.60
2023-02-02T02:31:26.406Z,4.60
2023-02-02T02:34:42.399Z,4.40
2023-02-02T02:37:22.413Z,4.30
2023-02-02T02:39:59.749Z,4.40
2023-02-02T02:42:36.154Z,4.40
2023-02-02T02:45:09.241Z,4.60
2023-02-02T02:47:38.849Z,4.50
2023-02-02T02:50:12.846Z,4.50
2023-02-02T02:52:45.818Z,4.30
2023-02-02T02:55:15.867Z,4.50
2023-02-02T02:58:06.168Z,4.60
2023-02-02T03:00:49.950Z,4.60
2023-02-02T03:03:34.245Z,4.80
2023-02-02T03:06:14.338Z,4.60
2023-02-02T03:08:59.949Z,4.70
2023-02-02T03:11:50.288Z,4.70
2023-02-02T03:14:19.070Z,4.60
2023-02-02T03:16:57.174Z,4.50
2023-02-02T03:19:28.110Z,4.50
2023-02-02T03:22:00.234Z,4.60
2023-02-02T03:24:44.355Z,4.70
2023-02-02T03:27:13.056Z,4.80
2023-02-02T03:29:44.559Z,4.70
2023-02-02T03:32:14.573Z,4.80
2023-02-02T03:34:43.341Z,4.80
2023-02-02T03:37:13.581Z,4.80
2023-02-02T03:39:42.412Z,4.70
2023-02-02T03:42:11.302Z,4.60
2023-02-02T03:44:48.372Z,4.90
2023-02-02T03:49:52.287Z,4.70
2023-02-02T03:52:37.291Z,4.60
2023-02-02T03:55:44.966Z,4.70
2023-02-02T03:58:31.003Z,4.60
2023-02-02T04:01:20.889Z,4.60
2023-02-02T04:06:10.793Z,4.70
2023-02-02T04:08:25.765Z,4.60
2023-02-02T04:10:52.068Z,4.60
2023-02-02T04:13:41.994Z,4.60
2023-02-02T04:16:16.424Z,4.80
2023-02-02T04:18:59.273Z,4.80
2023-02-02T04:21:29.891Z,4.70
2023-02-02T04:24:02.069Z,4.60
2023-02-02T04:26:34.112Z,4.70
2023-02-02T04:29:02.911Z,4.80
2023-02-02T04:31:32.229Z,4.90
2023-02-02T04:34:02.214Z,5.20
2023-02-02T04:36:31.349Z,5.00
2023-02-02T04:39:00.118Z,4.90
2023-02-02T04:41:29.225Z,4.90
2023-02-02T04:44:01.464Z,4.80
2023-02-02T04:46:30.356Z,4.90
2023-02-02T04:49:01.116Z,5.00
2023-02-02T04:51:36.279Z,4.90
2023-02-02T04:54:18.937Z,4.80
2023-02-02T04:57:01.573Z,4.80
2023-02-02T04:59:34.775Z,4.80
2023-02-02T05:02:05.636Z,4.80
2023-02-02T05:04:36.958Z,4.70
2023-02-02T05:07:07.690Z,4.70
2023-02-02T05:09:36.763Z,4.60
2023-02-02T05:13:02.089Z,4.50
2023-02-02T05:16:52.451Z,4.60
2023-02-02T05:22:01.353Z,4.60
2023-02-02T05:23:18.000Z,4.70
2023-02-02T05:26:09.192Z,4.70
2023-02-02T05:28:55.338Z,4.70
2023-02-02T05:31:25.717Z,4.60
2023-02-02T05:33:54.709Z,4.70
2023-02-02T05:36:43.936Z,4.70
2023-02-02T05:39:35.733Z,4.50
2023-02-02T05:42:02.985Z,4.80
2023-02-02T05:44:34.960Z,4.70
2023-02-02T05:47:05.414Z,4.80
2023-02-02T05:49:36.471Z,4.70
2023-02-02T05:52:06.675Z,4.70
2023-02-02T05:54:35.782Z,4.80
2023-02-02T05:57:10.890Z,4.70
2023-02-02T05:59:47.437Z,4.70
2023-02-02T06:02:18.031Z,4.70
2023-02-02T06:04:50.859Z,4.70
2023-02-02T06:07:23.330Z,4.90
2023-02-02T06:09:59.616Z,4.90
2023-02-02T06:12:28.332Z,4.80
2023-02-02T06:14:59.176Z,5.00
2023-02-02T06:17:29.539Z,4.90
2023-02-02T06:19:58.462Z,5.00
2023-02-02T06:22:27.642Z,5.20
2023-02-02T06:24:56.621Z,5.00
2023-02-02T06:27:25.747Z,4.90
2023-02-02T06:29:56.611Z,4.90
2023-02-02T06:32:25.874Z,4.80
2023-02-02T06:34:56.208Z,4.70
2023-02-02T06:37:25.123Z,4.70
2023-02-02T06:39:54.299Z,4.80
2023-02-02T06:42:23.155Z,4.60
2023-02-02T06:44:52.059Z,4.60
2023-02-02T06:47:26.558Z,4.60
2023-02-02T06:49:57.249Z,4.50
2023-02-02T06:52:25.975Z,4.50
2023-02-02T06:56:20.150Z,4.40
2023-02-02T06:58:48.272Z,4.40
2023-02-02T07:01:19.380Z,4.30
2023-02-02T07:03:53.453Z,4.40
2023-02-02T07:06:58.781Z,4.40
2023-02-02T07:09:27.923Z,4.40
2023-02-02T07:12:01.876Z,4.40
2023-02-02T07:14:32.766Z,4.50
2023-02-02T07:17:01.660Z,4.50
2023-02-02T07:19:41.673Z,4.50
2023-02-02T07:22:35.467Z,4.50
2023-02-02T07:25:04.357Z,4.40
2023-02-02T07:27:33.358Z,4.40
2023-02-02T07:30:02.505Z,4.60
2023-02-02T07:32:35.290Z,4.40
2023-02-02T07:35:05.183Z,4.40
2023-02-02T07:37:40.020Z,4.20
2023-02-02T07:43:23.708Z,4.20
2023-02-02T07:46:05.516Z,4.20
2023-02-02T07:49:13.636Z,4.30
2023-02-02T07:51:48.096Z,4.20
2023-02-02T07:54:23.884Z,4.40
2023-02-02T07:56:52.903Z,4.40
2023-02-02T07:59:34.703Z,4.60
2023-02-02T08:02:03.633Z,4.70
2023-02-02T08:04:41.296Z,4.80
2023-02-02T08:07:10.221Z,4.80
2023-02-02T08:09:40.636Z,4.70
2023-02-02T08:12:25.364Z,4.80
2023-02-02T08:15:22.115Z,5.00
2023-02-02T08:58:52.391Z,5.40
2023-02-02T09:01:24.233Z,5.50
2023-02-02T09:03:56.368Z,5.60
2023-02-02T09:06:32.155Z,5.50
2023-02-02T09:09:01.426Z,5.60
2023-02-02T09:11:31.353Z,5.50
2023-02-02T09:14:03.490Z,5.60
2023-02-02T09:16:32.456Z,5.80
2023-02-02T09:19:01.363Z,5.60
2023-02-02T09:21:30.630Z,5.70
2023-02-02T09:23:59.413Z,5.50
2023-02-02T09:26:30.941Z,5.60
2023-02-02T09:29:04.281Z,5.50
2023-02-02T09:31:38.798Z,5.60
2023-02-02T09:34:10.556Z,5.80
2023-02-02T09:36:41.446Z,5.80
2023-02-02T09:39:13.092Z,5.90
2023-02-02T09:42:19.356Z,5.90
2023-02-02T09:45:03.254Z,5.90
2023-02-02T09:47:58.651Z,5.90
2023-02-02T09:50:44.680Z,6.00
2023-02-02T09:53:40.672Z,6.00
2023-02-02T09:56:28.811Z,6.10
2023-02-02T09:59:19.569Z,6.10
2023-02-02T10:01:59.257Z,6.10
2023-02-02T10:04:42.425Z,6.20
2023-02-02T10:07:21.637Z,6.00
2023-02-02T10:10:02.930Z,6.00
2023-02-02T10:12:47.333Z,5.90
2023-02-02T10:15:24.793Z,5.90
2023-02-02T10:18:06.098Z,5.90
2023-02-02T10:20:48.705Z,6.00
2023-02-02T10:23:28.831Z,5.90
2023-02-02T10:26:05.982Z,5.80
2023-02-02T10:28:46.623Z,6.00
2023-02-02T10:31:36.962Z,6.10
2023-02-02T10:34:19.659Z,6.10
2023-02-02T10:37:24.486Z,6.10
2023-02-02T10:40:12.699Z,5.90
2023-02-02T10:43:15.062Z,6.20
2023-02-02T10:45:46.824Z,6.10
2023-02-02T10:48:30.595Z,6.10
2023-02-02T10:51:17.570Z,6.10
2023-02-02T10:54:12.633Z,6.00
2023-02-02T10:56:52.847Z,6.10
2023-02-02T10:59:40.064Z,6.10
2023-02-02T11:02:38.578Z,6.00
2023-02-02T11:05:36.742Z,6.00
2023-02-02T11:08:21.736Z,6.10
2023-02-02T11:11:05.298Z,6.20
2023-02-02T11:13:50.323Z,6.30
2023-02-02T11:16:41.396Z,6.20
2023-02-02T11:19:29.792Z,6.30
2023-02-02T11:22:05.328Z,6.30
2023-02-02T11:24:46.866Z,6.50
2023-02-02T11:27:23.699Z,6.40
2023-02-02T11:30:11.169Z,6.50
2023-02-02T11:32:40.423Z,6.50
2023-02-02T11:35:26.315Z,6.60
2023-02-02T11:38:02.569Z,6.60
2023-02-02T11:40:38.848Z,6.40
2023-02-02T11:43:21.214Z,6.40
2023-02-02T11:46:03.162Z,6.30
2023-02-02T11:48:38.048Z,6.20
2023-02-02T11:51:21.221Z,6.40
2023-02-02T11:54:03.781Z,6.40
2023-02-02T11:56:38.711Z,6.30
2023-02-02T11:59:07.774Z,6.30
2023-02-02T12:01:40.867Z,6.30
2023-02-02T12:04:26.781Z,6.30
2023-02-02T12:06:58.038Z,6.30
2023-02-02T12:09:29.514Z,6.10
2023-02-02T12:12:14.360Z,6.00
2023-02-02T12:15:02.439Z,5.80
2023-02-02T12:17:42.253Z,5.80
2023-02-02T12:20:33.455Z,5.80
2023-02-02T12:23:33.314Z,5.70
2023-02-02T12:26:26.535Z,5.80
2023-02-02T12:29:36.298Z,5.90
2023-02-02T12:32:28.424Z,5.90
2023-02-02T12:35:23.144Z,5.90
2023-02-02T12:38:08.185Z,6.00
2023-02-02T12:41:05.974Z,5.90
2023-02-02T12:43:41.546Z,6.10
2023-02-02T12:46:45.472Z,6.30
2023-02-02T12:49:45.464Z,6.10
2023-02-02T12:52:34.704Z,6.20
2023-02-02T12:55:24.405Z,6.40
2023-02-02T12:58:07.946Z,6.30
2023-02-02T13:01:07.026Z,6.10
2023-02-02T13:04:06.345Z,6.30
2023-02-02T13:07:19.527Z,6.10
2023-02-02T13:10:04.146Z,6.30
2023-02-02T13:12:41.379Z,6.50
2023-02-02T13:15:16.319Z,6.40
2023-02-02T13:17:51.490Z,6.50
2023-02-02T13:20:38.859Z,6.50
2023-02-02T13:23:16.916Z,6.40
2023-02-02T13:25:52.056Z,6.60
2023-02-02T13:28:37.426Z,6.60
2023-02-02T13:31:16.419Z,6.40
2023-02-02T13:33:49.630Z,6.30
2023-02-02T13:36:28.651Z,6.40
2023-02-02T13:39:01.567Z,6.30
2023-02-02T13:41:31.493Z,6.40
2023-02-02T13:44:08.282Z,6.40
2023-02-02T13:46:49.623Z,6.40
2023-02-02T13:49:24.539Z,6.30
2023-02-02T13:52:15.743Z,6.20
2023-02-02T13:55:48.773Z,6.20
2023-02-02T13:58:53.834Z,6.00
2023-02-02T14:01:24.965Z,5.90
2023-02-02T14:03:57.534Z,5.90
2023-02-02T14:06:28.939Z,5.80
2023-02-02T14:09:02.764Z,6.00
2023-02-02T14:11:34.707Z,6.00
2023-02-02T14:14:33.496Z,5.90
2023-02-02T14:17:03.734Z,6.00
2023-02-02T14:19:57.170Z,5.70
2023-02-02T14:22:48.132Z,5.70
2023-02-02T14:26:06.575Z,5.80
2023-02-02T14:28:48.132Z,5.80
2023-02-02T14:31:54.390Z,5.60
2023-02-02T14:34:35.103Z,5.70
2023-02-02T14:37:40.120Z,5.80
2023-02-02T14:40:44.633Z,5.90
2023-02-02T14:43:45.264Z,6.10
2023-02-02T14:46:34.859Z,6.30
2023-02-02T14:49:16.098Z,6.20
2023-02-02T14:51:55.241Z,6.40
2023-02-02T14:54:41.138Z,6.50
2023-02-02T14:57:27.684Z,6.40
2023-02-02T15:00:01.328Z,6.40
2023-02-02T15:02:36.000Z,6.20
2023-02-02T15:05:44.005Z,6.10
2023-02-02T15:08:28.917Z,6.20
2023-02-02T15:11:29.200Z,6.10
2023-02-02T15:14:24.444Z,6.00
2023-02-02T15:16:56.520Z,6.00
2023-02-02T15:19:35.139Z,5.90
2023-02-02T15:22:23.797Z,5.90
2023-02-02T15:24:54.189Z,5.80
2023-02-02T15:27:25.919Z,5.80
2023-02-02T15:29:59.334Z,5.70
2023-02-02T15:32:41.285Z,5.70
2023-02-02T15:35:20.433Z,5.90
2023-02-02T15:37:55.366Z,5.80
2023-02-02T15:40:27.947Z,5.90
2023-02-02T15:43:01.866Z,5.90
2023-02-02T15:45:44.789Z,6.00
2023-02-02T15:48:29.775Z,5.90
2023-02-02T15:51:02.527Z,6.00
2023-02-02T15:53:51.724Z,5.90
2023-02-02T15:56:30.508Z,6.00
2023-02-02T15:59:01.850Z,6.00
2023-02-02T16:01:48.070Z,6.00
2023-02-02T16:04:29.044Z,6.10
2023-02-02T16:06:58.642Z,6.10
2023-02-02T16:09:35.019Z,6.00
2023-02-02T16:12:05.344Z,6.10
2023-02-02T16:14:39.521Z,6.00
2023-02-02T16:17:15.049Z,6.00
2023-02-02T16:19:46.656Z,6.00
2023-02-02T16:22:19.243Z,5.90
2023-02-02T16:24:55.357Z,6.10
2023-02-02T16:27:28.304Z,6.10
2023-02-02T16:30:05.356Z,6.10
2023-02-02T16:32:37.147Z,6.00
2023-02-02T16:35:24.218Z,6.00
2023-02-02T16:37:53.113Z,5.90
2023-02-02T16:40:30.104Z,5.80
2023-02-02T16:43:20.300Z,5.80
2023-02-02T16:45:54.078Z,5.80
2023-02-02T16:48:33.532Z,5.80
2023-02-02T16:51:34.118Z,5.90
2023-02-02T16:54:14.866Z,5.90
2023-02-02T16:56:47.132Z,5.90
2023-02-02T16:59:25.438Z,6.00
2023-02-02T17:01:59.219Z,6.20
2023-02-02T17:04:31.716Z,6.10
2023-02-02T17:07:11.712Z,6.10
2023-02-02T17:09:41.701Z,6.30
2023-02-02T17:12:35.272Z,6.20
2023-02-02T17:15:34.870Z,6.30
2023-02-02T17:18:06.356Z,6.00
2023-02-02T17:20:35.155Z,5.80
2023-02-02T17:23:09.983Z,5.80
2023-02-02T17:25:43.731Z,5.90
2023-02-02T17:28:14.954Z,6.00
2023-02-02T17:30:45.592Z,6.10
2023-02-02T17:33:16.526Z,6.20
2023-02-02T17:35:54.354Z,6.10
2023-02-02T17:38:27.762Z,6.30
2023-02-02T17:41:00.851Z,6.00
2023-02-02T17:43:30.225Z,6.00
2023-02-02T17:45:59.058Z,5.80
2023-02-02T17:48:27.651Z,5.90
2023-02-02T17:50:56.165Z,5.80
2023-02-02T17:53:27.829Z,5.80
2023-02-02T17:55:56.589Z,5.80
2023-02-02T17:58:25.217Z,5.80
2023-02-02T18:00:59.117Z,6.00
2023-02-02T18:03:33.937Z,5.90
2023-02-02T18:06:03.218Z,5.90
2023-02-02T18:08:34.788Z,5.80
2023-02-02T18:11:03.961Z,5.60
2023-02-02T18:13:32.940Z,5.70
2023-02-02T18:16:01.494Z,5.70
2023-02-02T18:18:30.392Z,5.90
2023-02-02T18:20:59.101Z,5.80
2023-02-02T18:23:28.064Z,5.70
2023-02-02T18:25:58.144Z,5.80
2023-02-02T18:28:26.783Z,5.50
2023-02-02T18:30:55.732Z,5.70
2023-02-02T18:33:24.341Z,5.70
2023-02-02T18:35:52.924Z,6.00
2023-02-02T18:38:21.476Z,5.90
2023-02-02T18:40:58.318Z,5.90
2023-02-02T18:43:27.095Z,5.80
2023-02-02T18:46:01.246Z,6.00
2023-02-02T18:48:31.493Z,5.90
2023-02-02T18:51:00.817Z,6.10
2023-02-02T18:53:29.671Z,5.80
2023-02-02T18:55:59.774Z,5.80
2023-02-02T18:58:28.421Z,5.90
2023-02-02T19:00:56.989Z,5.70
2023-02-02T19:03:25.687Z,5.80
2023-02-02T19:06:11.739Z,5.80
2023-02-02T19:08:40.365Z,6.00
2023-02-02T19:11:20.678Z,6.10
2023-02-02T19:13:50.703Z,6.10
2023-02-02T19:16:27.210Z,6.10
2023-02-02T19:18:59.305Z,6.00
2023-02-02T19:21:31.909Z,6.00
2023-02-02T19:24:02.537Z,5.90
2023-02-02T19:26:37.191Z,5.90
2023-02-02T19:29:18.328Z,5.70
2023-02-02T19:31:48.059Z,5.70
2023-02-02T19:34:22.429Z,5.80
2023-02-02T19:36:53.100Z,5.60
2023-02-02T19:39:28.396Z,5.80
2023-02-02T19:42:01.858Z,5.60
2023-02-02T19:44:34.186Z,5.60
2023-02-02T19:47:03.335Z,5.70
2023-02-02T19:49:35.226Z,5.70
2023-02-02T19:52:05.231Z,5.70
2023-02-02T19:54:40.116Z,5.70
2023-02-02T19:57:22.304Z,5.80
2023-02-02T19:59:53.934Z,5.90
2023-02-02T20:02:44.821Z,5.80
2023-02-02T20:05:22.486Z,5.80
2023-02-02T20:07:59.265Z,6.00
2023-02-02T20:10:36.723Z,6.10
2023-02-02T20:13:18.172Z,6.20
2023-02-02T20:15:47.636Z,6.30
2023-02-02T20:18:21.391Z,6.30
2023-02-02T20:20:54.891Z,6.10
2023-02-02T20:23:43.665Z,6.10
2023-02-02T20:26:27.602Z,6.10
2023-02-02T20:29:00.258Z,6.20
2023-02-02T20:31:39.472Z,6.10
2023-02-02T20:34:24.887Z,6.10
2023-02-02T20:36:55.284Z,6.00
2023-02-02T20:39:36.266Z,6.00
2023-02-02T20:42:06.055Z,5.80
2023-02-02T20:44:36.807Z,5.80
2023-02-02T20:47:07.929Z,5.70
2023-02-02T20:49:38.796Z,5.80
2023-02-02T20:52:12.142Z,5.80
2023-02-02T20:54:41.192Z,5.80
2023-02-02T20:57:09.873Z,5.80
2023-02-02T20:59:40.112Z,5.80
2023-02-02T21:02:10.274Z,5.90
2023-02-02T21:04:39.168Z,5.90
2023-02-02T21:07:08.065Z,5.90
2023-02-02T21:09:37.289Z,5.80
2023-02-02T21:12:06.594Z,5.80
2023-02-02T21:14:35.640Z,5.70
2023-02-02T21:17:14.828Z,5.60
2023-02-02T21:19:49.961Z,5.70
2023-02-02T21:22:20.929Z,5.60
2023-02-02T21:24:59.983Z,5.80
2023-02-02T21:27:34.921Z,5.90
2023-02-02T21:30:05.381Z,5.80
2023-02-02T21:32:38.277Z,5.90
2023-02-02T21:35:08.221Z,5.70
2023-02-02T21:37:38.330Z,5.70
2023-02-02T21:40:17.669Z,5.90
2023-02-02T21:42:52.882Z,5.80
2023-02-02T21:45:35.699Z,5.90
2023-02-02T21:48:21.726Z,6.10
2023-02-02T21:50:51.934Z,6.10
2023-02-02T21:57:21.430Z,5.80
2023-02-02T22:00:03.136Z,6.00
2023-02-02T22:02:51.744Z,6.20
2023-02-02T22:05:29.233Z,6.00
2023-02-02T22:08:00.505Z,6.10
2023-02-02T22:10:39.660Z,6.00
2023-02-02T22:13:20.432Z,5.80
2023-02-02T22:15:54.318Z,6.00
2023-02-02T22:18:25.940Z,5.80
2023-02-02T22:20:56.727Z,5.80
2023-02-02T22:23:29.065Z,5.80
2023-02-02T22:25:59.755Z,5.60
2023-02-02T22:28:37.963Z,5.60
2023-02-02T22:31:09.885Z,5.70
2023-02-02T23:03:36.183Z,6.00
